Flight Track Log - Related Links

Times and Time Zones

All times are in EDT time to prevent confusion due to time zone crossing. See the LIA553 flight status page for this flight to view local times or setup timezone preferences in your user account.

Time Position Orientation Groundspeed Altitude Reporting Facility
EDT Latitude Longitude Course Direction KTS MPH feet Rate Location/Type
Sat 02:19:34 PM 18.3333 -64.9333 75° East 110 127 1,300  Level San Juan Center
Sat 02:20:34 PM 18.3167 -64.9000 118° Southeast 140 161 3,100 1,850 Climbing San Juan Center
Sat 02:21:34 PM 18.3167 -64.8667 90° East 140 161 5,000 1,650 Climbing San Juan Center
Sat 02:22:34 PM 18.3167 -64.8167 90° East 150 173 6,400 1,488 Climbing San Juan Center
Sat 02:23:00 PM 18.4301 -64.7909 66° East  Level FlightAware Approximate
Sat 02:23:35 PM 18.3000 -64.7667 109° East 150 173 8,000  Level San Juan Center
Sat 02:24:00 PM 18.4432 -64.7439 75° East  Level FlightAware Approximate
Sat 02:24:35 PM 18.3000 -64.7167 90° East 180 207 9,000  Level San Juan Center
Sat 02:25:35 PM 18.3000 -64.6500 90° East 220 253 9,000  Level San Juan Center
Sat 02:26:36 PM 18.3000 -64.5833 90° East 250 288 9,000  Level San Juan Center
Sat 02:27:36 PM 18.3000 -64.5167 90° East 250 288 9,000  Level San Juan Center
Sat 02:28:36 PM 18.3000 -64.4333 90° East 250 288 9,000  Level San Juan Center
Sat 02:29:37 PM 18.3000 -64.3667 90° East 250 288 9,000  Level San Juan Center
Sat 02:30:37 PM 18.2833 -64.2833 102° East 260 299 9,000  Level San Juan Center
Sat 02:31:37 PM 18.3000 -64.2167 75° East 250 288 9,000  Level San Juan Center
Sat 02:32:38 PM 18.3167 -64.1333 78° East 250 288 9,000  Level San Juan Center
Sat 02:33:38 PM 18.3333 -64.0667 75° East 250 288 9,000  Level San Juan Center
Sat 02:34:38 PM 18.3333 -64.0000 90° East 250 288 9,000  Level San Juan Center
Sat 02:35:39 PM 18.3500 -63.9167 78° East 250 288 9,000  Level San Juan Center
Sat 02:36:39 PM 18.3667 -63.8500 75° East 250 288 9,000  Level San Juan Center
Sat 02:37:39 PM 18.3667 -63.7833 90° East 250 288 9,000  Level San Juan Center
Sat 02:38:40 PM 18.3500 -63.7167 105° East 250 288 9,000  Level San Juan Center

Login

Don't have an account? Register now (free) for customized features, flight alerts, and more!